createdAt,value
2018-04-01T00:00:11.198Z,42.80
2018-04-01T00:00:42.935Z,42.60
2018-04-01T00:01:14.702Z,42.80
2018-04-01T00:01:46.434Z,42.70
2018-04-01T00:02:18.175Z,42.70
2018-04-01T00:02:49.929Z,42.60
2018-04-01T00:03:21.667Z,42.60
2018-04-01T00:03:53.428Z,42.60
2018-04-01T00:04:25.174Z,42.60
2018-04-01T00:04:56.895Z,42.50
2018-04-01T00:05:28.636Z,42.60
2018-04-01T00:06:00.383Z,42.60
2018-04-01T00:06:32.120Z,42.50
2018-04-01T00:07:03.868Z,42.70
2018-04-01T00:07:35.608Z,42.60
2018-04-01T00:08:07.543Z,42.50
2018-04-01T00:08:39.292Z,42.70
2018-04-01T00:09:11.040Z,42.50
2018-04-01T00:09:42.785Z,42.70
2018-04-01T00:10:14.520Z,42.50
2018-04-01T00:10:46.271Z,42.70
2018-04-01T00:11:18.011Z,42.70
2018-04-01T00:11:49.755Z,42.60
2018-04-01T00:12:21.524Z,42.70
2018-04-01T00:12:53.262Z,42.60
2018-04-01T00:13:25.005Z,42.40
2018-04-01T00:13:56.779Z,42.50
2018-04-01T00:14:28.546Z,42.40
2018-04-01T00:15:01.064Z,43.00
2018-04-01T00:15:32.812Z,43.00
2018-04-01T00:16:04.563Z,42.60
2018-04-01T00:16:36.284Z,42.40
2018-04-01T00:17:08.021Z,42.70
2018-04-01T00:17:39.763Z,42.80
2018-04-01T00:18:11.513Z,43.00
2018-04-01T00:18:43.249Z,43.00
2018-04-01T00:19:14.982Z,42.50
2018-04-01T00:19:46.716Z,42.50
2018-04-01T00:20:19.217Z,42.50
2018-04-01T00:20:50.968Z,42.50
2018-04-01T00:21:22.714Z,42.60
2018-04-01T00:21:54.495Z,42.60
2018-04-01T00:22:26.222Z,42.60
2018-04-01T00:22:57.967Z,42.40
2018-04-01T00:23:30.464Z,42.50
2018-04-01T00:24:02.195Z,42.60
2018-04-01T00:24:34.699Z,42.40
2018-04-01T00:25:06.434Z,42.40
2018-04-01T00:25:38.194Z,42.50
2018-04-01T00:26:09.994Z,42.40
2018-04-01T00:26:42.486Z,42.80
2018-04-01T00:27:14.219Z,42.80
2018-04-01T00:27:45.976Z,42.70
2018-04-01T00:28:17.703Z,42.70
2018-04-01T00:28:49.449Z,42.50
2018-04-01T00:29:21.950Z,42.60
2018-04-01T00:29:53.705Z,42.60
2018-04-01T00:30:25.435Z,42.40
2018-04-01T00:30:57.180Z,42.40
2018-04-01T00:31:28.927Z,42.30
2018-04-01T00:32:00.667Z,42.40
2018-04-01T00:32:32.418Z,42.50
2018-04-01T00:33:04.162Z,42.50
2018-04-01T00:33:35.896Z,42.60
2018-04-01T00:34:07.647Z,42.60
2018-04-01T00:34:39.399Z,42.70
2018-04-01T00:35:11.138Z,42.50
2018-04-01T00:35:42.886Z,42.60
2018-04-01T00:36:14.629Z,42.60
2018-04-01T00:36:46.374Z,42.40
2018-04-01T00:37:18.107Z,42.40
2018-04-01T00:37:49.888Z,42.60
2018-04-01T00:38:21.624Z,42.70
2018-04-01T00:38:53.377Z,42.20
2018-04-01T00:39:25.093Z,42.90
2018-04-01T00:39:56.834Z,42.70
2018-04-01T00:40:28.577Z,42.40
2018-04-01T00:41:00.320Z,42.50
2018-04-01T00:41:32.091Z,42.50
2018-04-01T00:42:03.827Z,42.40
2018-04-01T00:42:35.570Z,42.40
2018-04-01T00:43:08.103Z,42.40
2018-04-01T00:43:39.822Z,42.40
2018-04-01T00:44:11.576Z,42.50
2018-04-01T00:44:43.330Z,42.40
2018-04-01T00:45:15.078Z,42.30
2018-04-01T00:45:46.813Z,42.30
2018-04-01T00:46:18.543Z,42.40
2018-04-01T00:46:50.309Z,42.40
2018-04-01T00:47:22.035Z,42.60
2018-04-01T00:47:53.772Z,42.30
2018-04-01T00:48:26.263Z,42.40
2018-04-01T00:48:58.024Z,42.40
2018-04-01T00:49:29.772Z,42.30
2018-04-01T00:50:01.515Z,42.30
2018-04-01T00:50:33.261Z,42.30
2018-04-01T00:51:05.000Z,42.30
2018-04-01T00:51:36.744Z,42.30
2018-04-01T00:52:08.488Z,42.50
2018-04-01T00:52:40.237Z,42.40
2018-04-01T00:53:11.981Z,42.50
2018-04-01T00:53:43.717Z,42.30
2018-04-01T00:54:15.467Z,42.70
2018-04-01T00:54:47.218Z,42.40
2018-04-01T00:55:18.946Z,42.70
2018-04-01T00:55:50.716Z,42.70
2018-04-01T00:56:22.448Z,42.40
2018-04-01T00:56:54.198Z,42.40
2018-04-01T00:57:25.943Z,42.80
2018-04-01T00:57:57.682Z,42.50
2018-04-01T00:58:29.419Z,42.60
2018-04-01T00:59:01.152Z,42.70
2018-04-01T00:59:32.921Z,42.60
2018-04-01T01:00:04.667Z,42.50
2018-04-01T01:00:36.406Z,42.50
2018-04-01T01:01:08.144Z,42.70
2018-04-01T01:01:39.883Z,42.40
2018-04-01T01:02:11.641Z,42.40
2018-04-01T01:02:43.387Z,42.30
2018-04-01T01:03:15.120Z,42.30
2018-04-01T01:03:46.857Z,42.50
2018-04-01T01:04:18.637Z,42.30
2018-04-01T01:04:50.368Z,42.70
2018-04-01T01:05:22.107Z,42.40
2018-04-01T01:05:53.847Z,42.50
2018-04-01T01:06:25.584Z,42.70
2018-04-01T01:06:57.334Z,42.40
2018-04-01T01:07:29.079Z,42.40
2018-04-01T01:08:00.840Z,42.50
2018-04-01T01:08:32.578Z,42.50
2018-04-01T01:09:04.319Z,42.60
2018-04-01T01:09:36.071Z,42.40
2018-04-01T01:10:07.807Z,42.90
2018-04-01T01:10:39.544Z,42.80
2018-04-01T01:11:11.471Z,42.60
2018-04-01T01:11:43.219Z,42.60
2018-04-01T01:12:14.961Z,42.50
2018-04-01T01:12:46.695Z,42.60
2018-04-01T01:13:18.432Z,42.40
2018-04-01T01:13:50.176Z,42.30
2018-04-01T01:14:21.911Z,42.40
2018-04-01T01:14:54.408Z,42.20
2018-04-01T01:15:26.147Z,42.20
2018-04-01T01:15:57.898Z,42.20
2018-04-01T01:16:29.610Z,42.20
2018-04-01T01:17:01.351Z,42.30
2018-04-01T01:17:33.092Z,42.30
2018-04-01T01:18:04.850Z,42.20
2018-04-01T01:18:37.539Z,42.50
2018-04-01T01:19:09.284Z,42.40
2018-04-01T01:19:41.023Z,42.40
2018-04-01T01:20:12.780Z,42.20
2018-04-01T01:20:44.706Z,42.30
2018-04-01T01:21:16.459Z,42.20
2018-04-01T01:21:48.197Z,42.20
2018-04-01T01:22:19.934Z,42.20
2018-04-01T01:22:51.884Z,42.30
2018-04-01T01:23:23.620Z,42.30
2018-04-01T01:23:55.359Z,42.20
2018-04-01T01:24:27.888Z,42.20
2018-04-01T01:24:59.615Z,42.20
2018-04-01T01:25:31.353Z,42.30
2018-04-01T01:26:03.107Z,42.60
2018-04-01T01:26:34.848Z,42.70
2018-04-01T01:27:06.591Z,42.40
2018-04-01T01:27:38.340Z,42.90
2018-04-01T01:28:10.282Z,42.60
2018-04-01T01:28:42.028Z,42.40
2018-04-01T01:29:13.790Z,42.50
2018-04-01T01:29:45.515Z,42.30
2018-04-01T01:30:17.250Z,42.30
2018-04-01T01:30:49.007Z,42.20
2018-04-01T01:31:20.744Z,42.20
2018-04-01T01:31:52.579Z,42.30
2018-04-01T01:32:25.051Z,42.40
2018-04-01T01:32:56.816Z,42.30
2018-04-01T01:33:28.542Z,42.30
2018-04-01T01:34:00.280Z,42.40
2018-04-01T01:34:32.028Z,42.40
2018-04-01T01:35:03.802Z,42.20
2018-04-01T01:35:35.541Z,42.10
2018-04-01T01:36:07.280Z,42.60
2018-04-01T01:36:39.023Z,42.50
2018-04-01T01:37:10.762Z,42.40
2018-04-01T01:37:42.719Z,42.60
2018-04-01T01:38:14.454Z,42.40
2018-04-01T01:38:46.196Z,42.40
2018-04-01T01:39:17.939Z,42.40
2018-04-01T01:39:49.679Z,42.30
2018-04-01T01:40:21.411Z,42.30
2018-04-01T01:40:53.177Z,42.30
2018-04-01T01:41:24.892Z,42.30
2018-04-01T01:41:56.640Z,42.30
2018-04-01T01:42:28.383Z,42.70
2018-04-01T01:43:00.120Z,42.60
2018-04-01T01:43:31.843Z,42.50
2018-04-01T01:44:04.372Z,42.20
2018-04-01T01:44:36.128Z,42.20
2018-04-01T01:45:07.867Z,42.50
2018-04-01T01:45:39.592Z,43.40
2018-04-01T01:46:11.350Z,43.20
2018-04-01T01:46:43.300Z,42.40
2018-04-01T01:47:15.048Z,42.30
2018-04-01T01:47:46.782Z,42.30
2018-04-01T01:48:18.521Z,42.50
2018-04-01T01:48:50.256Z,42.20
2018-04-01T01:49:22.017Z,42.20
2018-04-01T01:49:53.748Z,42.20
2018-04-01T01:50:25.504Z,42.30
2018-04-01T01:50:57.253Z,42.40
2018-04-01T01:51:28.984Z,42.30
2018-04-01T01:52:00.733Z,42.30
2018-04-01T01:52:32.493Z,42.40
2018-04-01T01:53:04.196Z,42.40
2018-04-01T01:53:35.927Z,42.40
2018-04-01T01:54:07.668Z,42.30
2018-04-01T01:54:39.397Z,42.40
2018-04-01T01:55:11.913Z,42.30
2018-04-01T01:55:43.652Z,42.30
2018-04-01T01:56:15.385Z,42.30
2018-04-01T01:56:47.131Z,42.40
2018-04-01T01:57:18.884Z,42.40
2018-04-01T01:57:50.666Z,42.20
2018-04-01T01:58:22.596Z,42.20
2018-04-01T01:58:54.354Z,42.40
2018-04-01T01:59:26.094Z,42.50
2018-04-01T01:59:57.828Z,42.70
2018-04-01T02:00:29.868Z,42.20
2018-04-01T02:01:01.816Z,42.40
2018-04-01T02:01:33.561Z,42.20
2018-04-01T02:02:05.306Z,42.60
2018-04-01T02:02:37.048Z,42.50
2018-04-01T02:03:08.789Z,42.20
2018-04-01T02:03:40.541Z,42.20
2018-04-01T02:04:12.283Z,42.20
2018-04-01T02:04:44.024Z,42.20
2018-04-01T02:05:15.767Z,42.10
2018-04-01T02:05:47.517Z,42.20
2018-04-01T02:06:19.271Z,42.30
2018-04-01T02:06:51.002Z,42.30
2018-04-01T02:07:22.748Z,42.50
2018-04-01T02:07:54.496Z,42.40
2018-04-01T02:08:26.285Z,42.30
2018-04-01T02:08:58.829Z,42.20
2018-04-01T02:09:30.541Z,42.20
2018-04-01T02:10:02.296Z,42.20
2018-04-01T02:10:34.031Z,42.20
2018-04-01T02:11:05.768Z,42.10
2018-04-01T02:11:37.500Z,42.10
2018-04-01T02:12:09.251Z,42.30
2018-04-01T02:12:41.041Z,42.30
2018-04-01T02:13:12.988Z,42.30
2018-04-01T02:13:44.720Z,42.60
2018-04-01T02:14:16.485Z,42.20
2018-04-01T02:14:48.403Z,42.30
2018-04-01T02:15:20.137Z,42.30
2018-04-01T02:15:51.895Z,42.30
2018-04-01T02:16:23.631Z,42.20
2018-04-01T02:16:55.378Z,42.20
2018-04-01T02:17:27.118Z,42.20
2018-04-01T02:17:59.128Z,42.40
2018-04-01T02:18:30.867Z,42.40
2018-04-01T02:19:03.371Z,42.50
2018-04-01T02:19:35.124Z,42.40
2018-04-01T02:20:06.853Z,42.70
2018-04-01T02:20:38.607Z,42.30
2018-04-01T02:21:10.352Z,42.20
2018-04-01T02:21:42.083Z,42.60
2018-04-01T02:22:13.830Z,42.30
2018-04-01T02:22:45.604Z,42.40
2018-04-01T02:23:17.344Z,42.50
2018-04-01T02:23:49.078Z,42.20
2018-04-01T02:24:20.826Z,42.40
2018-04-01T02:24:52.557Z,42.60
2018-04-01T02:25:24.290Z,42.70
2018-04-01T02:25:56.025Z,42.50
2018-04-01T02:26:27.764Z,42.50
2018-04-01T02:26:59.500Z,42.60
2018-04-01T02:27:31.242Z,42.40
2018-04-01T02:28:02.996Z,42.30
2018-04-01T02:28:34.719Z,42.30
2018-04-01T02:29:07.251Z,42.70
2018-04-01T02:29:38.996Z,42.70
2018-04-01T02:30:10.739Z,42.40
2018-04-01T02:30:42.480Z,42.30
2018-04-01T02:31:14.252Z,42.50
2018-04-01T02:31:46.761Z,42.30
2018-04-01T02:32:18.516Z,42.30
2018-04-01T02:32:51.027Z,42.50
2018-04-01T02:33:22.782Z,42.40
2018-04-01T02:33:54.516Z,42.70
2018-04-01T02:34:26.292Z,42.40
2018-04-01T02:34:58.204Z,42.60
2018-04-01T02:35:29.946Z,42.70
2018-04-01T02:36:01.708Z,42.60
2018-04-01T02:36:33.440Z,42.50
2018-04-01T02:37:05.193Z,42.60
2018-04-01T02:37:36.928Z,42.50
2018-04-01T02:38:08.676Z,43.30
2018-04-01T02:38:40.424Z,42.50
2018-04-01T02:39:12.168Z,42.40
2018-04-01T02:39:44.114Z,42.50
2018-04-01T02:40:15.859Z,42.40
2018-04-01T02:40:47.612Z,42.50
2018-04-01T02:41:19.355Z,42.30
2018-04-01T02:41:51.125Z,42.70
2018-04-01T02:42:22.848Z,42.80
2018-04-01T02:42:54.591Z,43.00
2018-04-01T02:43:26.351Z,42.50
2018-04-01T02:43:58.081Z,42.60
2018-04-01T02:44:29.824Z,43.20
2018-04-01T02:45:01.572Z,42.60
2018-04-01T02:45:33.328Z,42.50
2018-04-01T02:46:05.054Z,42.90
2018-04-01T02:46:36.797Z,43.10
2018-04-01T02:47:08.565Z,43.40
2018-04-01T02:47:40.301Z,42.90
2018-04-01T02:48:12.026Z,42.70
2018-04-01T02:48:43.789Z,42.90
2018-04-01T02:49:16.289Z,43.20
2018-04-01T02:49:48.791Z,42.80
2018-04-01T02:50:20.588Z,42.80
2018-04-01T02:50:53.106Z,43.30
2018-04-01T02:51:24.852Z,43.20
2018-04-01T02:51:56.656Z,43.20
2018-04-01T02:52:28.402Z,43.00
2018-04-01T02:53:00.160Z,42.90
2018-04-01T02:53:31.984Z,42.70
2018-04-01T02:54:03.743Z,42.90
2018-04-01T02:54:35.480Z,42.80
2018-04-01T02:55:07.233Z,42.60
2018-04-01T02:55:38.982Z,42.70
2018-04-01T02:56:10.720Z,42.60
2018-04-01T02:56:42.522Z,42.60
2018-04-01T02:57:14.286Z,42.80
2018-04-01T02:57:46.792Z,42.80
2018-04-01T02:58:18.591Z,42.80
2018-04-01T02:58:51.112Z,42.70
2018-04-01T02:59:22.886Z,42.70
2018-04-01T02:59:55.389Z,42.30
2018-04-01T03:00:27.140Z,42.80
2018-04-01T03:00:58.891Z,42.80
2018-04-01T03:01:30.634Z,42.50
2018-04-01T03:02:02.375Z,42.70
2018-04-01T03:02:34.113Z,42.50
2018-04-01T03:03:05.840Z,42.50
2018-04-01T03:03:37.583Z,42.50
2018-04-01T03:04:10.097Z,42.50
2018-04-01T03:04:41.824Z,42.50
2018-04-01T03:05:13.594Z,42.90
2018-04-01T03:05:45.331Z,42.80
2018-04-01T03:06:17.070Z,42.70
2018-04-01T03:06:49.015Z,42.50
2018-04-01T03:07:20.804Z,42.80
2018-04-01T03:07:53.311Z,42.60
2018-04-01T03:08:25.048Z,42.60
2018-04-01T03:08:56.998Z,42.70
2018-04-01T03:09:28.956Z,43.30
2018-04-01T03:10:00.884Z,42.70
2018-04-01T03:10:32.827Z,42.60
2018-04-01T03:11:04.597Z,42.60
2018-04-01T03:11:36.512Z,42.80
2018-04-01T03:12:09.023Z,42.70
2018-04-01T03:12:40.768Z,42.70
2018-04-01T03:13:12.523Z,42.80
2018-04-01T03:13:44.241Z,42.80
2018-04-01T03:14:15.987Z,42.80
2018-04-01T03:14:47.726Z,42.90
2018-04-01T03:15:19.461Z,43.00
2018-04-01T03:15:51.193Z,43.00
2018-04-01T03:16:22.953Z,43.30
2018-04-01T03:16:54.707Z,43.40
2018-04-01T03:17:26.438Z,43.00
2018-04-01T03:17:58.172Z,42.90
2018-04-01T03:18:29.936Z,43.50
2018-04-01T03:19:01.676Z,42.90
2018-04-01T03:19:33.625Z,43.00
2018-04-01T03:20:05.364Z,42.80
2018-04-01T03:20:37.102Z,42.90
2018-04-01T03:21:08.854Z,43.00
2018-04-01T03:21:40.585Z,42.90
2018-04-01T03:22:12.318Z,43.00
2018-04-01T03:22:44.812Z,43.10
2018-04-01T03:23:16.558Z,43.00
2018-04-01T03:23:48.294Z,42.90
2018-04-01T03:24:20.032Z,42.90
2018-04-01T03:24:51.799Z,42.90
2018-04-01T03:25:23.515Z,42.80
2018-04-01T03:25:55.256Z,42.80
2018-04-01T03:26:27.005Z,43.40
2018-04-01T03:26:58.734Z,43.60
2018-04-01T03:27:31.265Z,43.40
2018-04-01T03:28:02.977Z,43.50
2018-04-01T03:28:34.724Z,43.20
2018-04-01T03:29:06.459Z,43.20
2018-04-01T03:29:38.192Z,43.10
2018-04-01T03:30:10.013Z,43.20
2018-04-01T03:30:42.717Z,43.90
2018-04-01T03:31:14.442Z,43.50
2018-04-01T03:31:46.218Z,43.20
2018-04-01T03:32:17.920Z,43.30
2018-04-01T03:32:49.657Z,43.40
2018-04-01T03:33:22.167Z,43.30
2018-04-01T03:33:53.904Z,43.20
2018-04-01T03:34:25.847Z,43.50
2018-04-01T03:34:57.601Z,43.40
2018-04-01T03:35:29.347Z,43.40
2018-04-01T03:36:01.099Z,43.30
2018-04-01T03:36:32.854Z,43.20
2018-04-01T03:37:04.593Z,43.10
2018-04-01T03:37:36.364Z,43.40
2018-04-01T03:38:08.088Z,43.30
2018-04-01T03:38:39.824Z,43.20
2018-04-01T03:39:11.583Z,43.20
2018-04-01T03:39:43.312Z,43.00
2018-04-01T03:40:15.067Z,43.00
2018-04-01T03:40:46.816Z,43.10
2018-04-01T03:41:18.548Z,43.20
2018-04-01T03:41:50.311Z,43.30
2018-04-01T03:42:22.052Z,43.30
2018-04-01T03:42:53.790Z,43.30
2018-04-01T03:43:25.538Z,43.50
2018-04-01T03:43:57.274Z,43.30
2018-04-01T03:44:29.019Z,43.20
2018-04-01T03:45:00.756Z,43.10
2018-04-01T03:45:32.488Z,43.10
2018-04-01T03:46:04.227Z,43.20
2018-04-01T03:46:35.965Z,43.20
2018-04-01T03:47:07.715Z,43.50
2018-04-01T03:47:39.459Z,43.40
2018-04-01T03:48:11.210Z,43.10
2018-04-01T03:48:43.149Z,43.00
2018-04-01T03:49:14.871Z,43.20
2018-04-01T03:49:46.614Z,43.20
2018-04-01T03:50:19.132Z,43.20
2018-04-01T03:50:50.856Z,43.10
2018-04-01T03:51:22.621Z,43.30
2018-04-01T03:51:54.363Z,43.10
2018-04-01T03:52:26.096Z,43.10
2018-04-01T03:52:57.841Z,43.10
2018-04-01T03:53:29.635Z,43.40
2018-04-01T03:54:02.141Z,43.20
2018-04-01T03:54:33.892Z,43.20
2018-04-01T03:55:05.632Z,43.50
2018-04-01T03:55:37.432Z,43.20
2018-04-01T03:56:09.946Z,43.20
2018-04-01T03:56:41.684Z,43.20
2018-04-01T03:57:13.423Z,43.20
2018-04-01T03:57:45.170Z,43.10
2018-04-01T03:58:16.914Z,43.10
2018-04-01T03:58:48.647Z,43.20
2018-04-01T03:59:20.376Z,43.10
2018-04-01T03:59:52.113Z,43.20
2018-04-01T04:00:23.863Z,43.40
2018-04-01T04:00:56.620Z,43.70
2018-04-01T04:01:29.131Z,43.30
2018-04-01T04:02:00.872Z,43.90
2018-04-01T04:02:32.609Z,43.40
2018-04-01T04:03:04.344Z,43.30
2018-04-01T04:03:36.079Z,43.20
2018-04-01T04:04:07.813Z,43.50
2018-04-01T04:04:39.558Z,43.30
2018-04-01T04:05:11.289Z,43.20
2018-04-01T04:05:43.219Z,43.10
2018-04-01T04:06:14.960Z,43.10
2018-04-01T04:06:46.703Z,43.20
2018-04-01T04:07:18.475Z,43.20
2018-04-01T04:07:50.967Z,43.20
2018-04-01T04:08:22.719Z,43.20
2018-04-01T04:08:54.460Z,43.20
2018-04-01T04:09:26.196Z,43.20
2018-04-01T04:09:57.933Z,43.50
2018-04-01T04:10:29.672Z,43.20
2018-04-01T04:11:01.430Z,43.10
2018-04-01T04:11:33.220Z,43.10
2018-04-01T04:12:04.964Z,43.00
2018-04-01T04:12:36.785Z,43.50
2018-04-01T04:13:08.515Z,43.50
2018-04-01T04:13:40.254Z,43.40
2018-04-01T04:14:12.064Z,43.60
2018-04-01T04:14:44.568Z,43.50
2018-04-01T04:15:16.505Z,43.30
2018-04-01T04:15:48.243Z,43.30
2018-04-01T04:16:19.976Z,43.30
2018-04-01T04:16:52.489Z,43.10
2018-04-01T04:17:24.221Z,43.10
2018-04-01T04:17:55.945Z,43.20
2018-04-01T04:18:27.718Z,43.40
2018-04-01T04:18:59.420Z,43.20
2018-04-01T04:19:31.157Z,43.30
2018-04-01T04:20:03.704Z,43.30
2018-04-01T04:20:36.239Z,43.20
2018-04-01T04:21:07.994Z,43.20
2018-04-01T04:21:39.736Z,43.10
2018-04-01T04:22:11.683Z,43.10
2018-04-01T04:22:43.426Z,43.10
2018-04-01T04:23:15.162Z,43.00
2018-04-01T04:23:46.923Z,43.30
2018-04-01T04:24:18.647Z,43.10
2018-04-01T04:24:50.386Z,43.10
2018-04-01T04:25:22.145Z,43.10
2018-04-01T04:25:53.876Z,43.00
2018-04-01T04:26:25.601Z,43.20
2018-04-01T04:26:57.336Z,43.10
2018-04-01T04:27:29.067Z,43.10
2018-04-01T04:28:00.804Z,43.10
2018-04-01T04:28:33.304Z,43.00
2018-04-01T04:29:05.069Z,43.00
2018-04-01T04:29:36.812Z,43.00
2018-04-01T04:30:08.550Z,43.00
2018-04-01T04:30:40.311Z,43.00
2018-04-01T04:31:12.082Z,43.60
2018-04-01T04:31:44.584Z,43.10
2018-04-01T04:32:16.321Z,43.10
2018-04-01T04:32:48.068Z,43.10
2018-04-01T04:33:19.816Z,43.60
2018-04-01T04:33:51.548Z,43.30
2018-04-01T04:34:23.297Z,43.10
2018-04-01T04:34:55.028Z,43.10
2018-04-01T04:35:26.767Z,43.10
2018-04-01T04:35:59.268Z,43.00
2018-04-01T04:36:31.069Z,43.00
2018-04-01T04:37:02.956Z,43.00
2018-04-01T04:37:34.708Z,43.10
2018-04-01T04:38:06.465Z,43.10
2018-04-01T04:38:38.204Z,43.10
2018-04-01T04:39:09.935Z,43.10
2018-04-01T04:39:41.695Z,43.10
2018-04-01T04:40:13.432Z,43.30
2018-04-01T04:40:45.177Z,43.20
2018-04-01T04:41:17.236Z,43.50
2018-04-01T04:41:48.964Z,43.70
2018-04-01T04:42:20.717Z,43.60
2018-04-01T04:42:52.536Z,43.60
2018-04-01T04:43:24.266Z,43.40
2018-04-01T04:43:55.999Z,43.40
2018-04-01T04:44:28.504Z,43.30
2018-04-01T04:45:00.271Z,43.30
2018-04-01T04:45:31.985Z,43.40
2018-04-01T04:46:03.723Z,43.30
2018-04-01T04:46:35.470Z,43.20
2018-04-01T04:47:07.208Z,43.40
2018-04-01T04:47:38.943Z,43.30
2018-04-01T04:48:10.684Z,43.30
2018-04-01T04:48:42.420Z,43.50
2018-04-01T04:49:14.924Z,43.70
2018-04-01T04:49:46.655Z,43.70
2018-04-01T04:50:18.424Z,44.30
2018-04-01T04:50:50.164Z,43.50
2018-04-01T04:51:21.895Z,43.50
2018-04-01T04:51:53.634Z,43.40
2018-04-01T04:52:25.377Z,43.60
2018-04-01T04:52:57.116Z,43.50
2018-04-01T04:53:28.857Z,43.20
2018-04-01T04:54:00.619Z,43.30
2018-04-01T04:54:32.364Z,43.40
2018-04-01T04:55:04.099Z,43.20
2018-04-01T04:55:35.947Z,43.30
2018-04-01T04:56:08.473Z,43.20
2018-04-01T04:56:40.433Z,43.20
2018-04-01T04:57:12.944Z,43.30
2018-04-01T04:57:44.701Z,43.30
2018-04-01T04:58:16.431Z,43.30
2018-04-01T04:58:48.176Z,43.30
2018-04-01T04:59:19.910Z,43.40
2018-04-01T04:59:51.648Z,43.30
2018-04-01T05:00:23.387Z,43.60
2018-04-01T05:00:55.154Z,43.40
2018-04-01T05:01:26.860Z,43.50
2018-04-01T05:01:58.600Z,43.30
2018-04-01T05:02:30.352Z,43.40
2018-04-01T05:03:02.875Z,43.30
2018-04-01T05:03:34.627Z,43.30
2018-04-01T05:04:06.368Z,43.30
2018-04-01T05:04:38.104Z,43.40
2018-04-01T05:05:11.355Z,43.50
2018-04-01T05:05:43.090Z,43.50
2018-04-01T05:06:14.827Z,43.50
2018-04-01T05:06:46.571Z,43.50
2018-04-01T05:07:18.302Z,43.40
2018-04-01T05:07:50.045Z,43.40
2018-04-01T05:08:21.780Z,43.30
2018-04-01T05:08:54.473Z,43.30
2018-04-01T05:09:26.211Z,43.30
2018-04-01T05:09:57.964Z,43.40
2018-04-01T05:10:29.723Z,43.40
2018-04-01T05:11:01.436Z,43.50
2018-04-01T05:11:33.176Z,43.50
2018-04-01T05:12:04.923Z,43.30
2018-04-01T05:12:36.658Z,43.50
2018-04-01T05:13:09.160Z,43.50
2018-04-01T05:13:40.912Z,43.50
2018-04-01T05:14:12.839Z,43.30
2018-04-01T05:14:44.590Z,43.60
2018-04-01T05:15:17.252Z,43.40
2018-04-01T05:15:49.032Z,43.30
2018-04-01T05:16:20.736Z,43.40
2018-04-01T05:16:52.472Z,43.30
2018-04-01T05:17:24.229Z,43.20
2018-04-01T05:17:56.024Z,43.40
2018-04-01T05:18:27.758Z,43.30
2018-04-01T05:18:59.491Z,43.30
2018-04-01T05:19:31.232Z,43.20
2018-04-01T05:20:02.985Z,43.50
2018-04-01T05:20:34.720Z,43.20
2018-04-01T05:21:06.464Z,43.50
2018-04-01T05:21:38.213Z,43.20
2018-04-01T05:22:09.970Z,43.20
2018-04-01T05:22:41.712Z,43.30
2018-04-01T05:23:13.469Z,43.40
2018-04-01T05:23:45.202Z,43.40
2018-04-01T05:24:16.933Z,43.40
2018-04-01T05:24:48.683Z,43.30
2018-04-01T05:25:20.428Z,43.20
2018-04-01T05:25:52.189Z,43.50
2018-04-01T05:26:23.949Z,43.20
2018-04-01T05:26:55.668Z,43.40
2018-04-01T05:27:27.413Z,43.30
2018-04-01T05:27:59.158Z,43.40
2018-04-01T05:28:30.892Z,43.50
2018-04-01T05:29:02.635Z,43.70
2018-04-01T05:29:34.382Z,43.40
2018-04-01T05:30:06.139Z,43.30
2018-04-01T05:30:37.875Z,43.40
2018-04-01T05:31:09.613Z,43.50
2018-04-01T05:31:41.354Z,43.60
2018-04-01T05:32:13.088Z,43.50
2018-04-01T05:32:44.846Z,43.30
2018-04-01T05:33:16.594Z,43.30
2018-04-01T05:33:48.344Z,43.50
2018-04-01T05:34:20.063Z,43.30
2018-04-01T05:34:51.811Z,43.30
2018-04-01T05:35:23.556Z,43.30
2018-04-01T05:35:55.297Z,43.50
2018-04-01T05:36:27.043Z,43.50
2018-04-01T05:36:58.804Z,43.50
2018-04-01T05:37:30.559Z,43.40
2018-04-01T05:38:02.302Z,43.30
2018-04-01T05:38:34.040Z,43.40
2018-04-01T05:39:05.784Z,43.50
2018-04-01T05:39:37.520Z,43.40
2018-04-01T05:40:09.285Z,43.40
2018-04-01T05:40:40.999Z,43.40
2018-04-01T05:41:13.592Z,43.30
2018-04-01T05:41:45.332Z,44.00
2018-04-01T05:42:17.076Z,44.10
2018-04-01T05:42:48.823Z,43.60
2018-04-01T05:43:20.559Z,43.80
2018-04-01T05:43:52.311Z,43.60
2018-04-01T05:44:24.090Z,43.70
2018-04-01T05:44:55.851Z,43.40
2018-04-01T05:45:27.568Z,43.70
2018-04-01T05:46:00.081Z,44.00
2018-04-01T05:46:31.829Z,44.00
2018-04-01T05:47:03.584Z,43.90
2018-04-01T05:47:35.331Z,44.20
2018-04-01T05:48:07.064Z,44.10
2018-04-01T05:48:38.793Z,43.60
2018-04-01T05:49:10.536Z,43.70
2018-04-01T05:49:42.265Z,43.50
2018-04-01T05:50:13.998Z,43.50
2018-04-01T05:50:45.735Z,43.80
2018-04-01T05:51:17.478Z,43.60
2018-04-01T05:51:49.387Z,43.80
2018-04-01T05:52:21.156Z,43.10
2018-04-01T05:52:53.717Z,43.40
2018-04-01T05:53:25.428Z,43.40
2018-04-01T05:53:57.168Z,43.40
2018-04-01T05:54:28.915Z,43.40
2018-04-01T05:55:00.652Z,43.50
2018-04-01T05:55:32.388Z,43.50
2018-04-01T05:56:04.125Z,43.60
2018-04-01T05:56:35.856Z,44.00
2018-04-01T05:57:07.591Z,43.70
2018-04-01T05:57:39.335Z,43.60
2018-04-01T05:58:11.072Z,43.60
2018-04-01T05:58:43.580Z,43.60
2018-04-01T05:59:15.323Z,43.60
2018-04-01T05:59:47.074Z,43.70
2018-04-01T06:00:18.822Z,43.60
2018-04-01T06:00:50.796Z,43.50
2018-04-01T06:01:22.718Z,43.70
2018-04-01T06:01:54.488Z,43.60
2018-04-01T06:02:26.224Z,44.00
2018-04-01T06:02:57.961Z,43.60
2018-04-01T06:03:29.696Z,44.00
2018-04-01T06:04:01.457Z,44.10
2018-04-01T06:04:33.205Z,44.10
2018-04-01T06:05:04.940Z,45.00
2018-04-01T06:05:36.707Z,43.60
2018-04-01T06:06:09.216Z,43.80
2018-04-01T06:06:40.960Z,43.80
2018-04-01T06:07:12.701Z,43.70
2018-04-01T06:07:44.436Z,43.60
2018-04-01T06:08:16.246Z,43.50
2018-04-01T06:08:47.979Z,43.50
2018-04-01T06:09:19.714Z,43.80
2018-04-01T06:09:51.475Z,43.60
2018-04-01T06:10:23.995Z,44.30
2018-04-01T06:10:55.734Z,43.60
2018-04-01T06:11:27.503Z,43.50
2018-04-01T06:11:59.242Z,43.70
2018-04-01T06:12:30.992Z,43.60
2018-04-01T06:13:02.736Z,43.90
2018-04-01T06:13:34.480Z,43.80
2018-04-01T06:14:06.220Z,43.80
2018-04-01T06:14:37.967Z,43.60
2018-04-01T06:15:09.721Z,43.70
2018-04-01T06:15:41.661Z,44.00
2018-04-01T06:16:13.422Z,43.90
2018-04-01T06:16:45.160Z,43.90
2018-04-01T06:17:16.895Z,43.70
2018-04-01T06:17:48.654Z,43.70
2018-04-01T06:18:20.427Z,43.90
2018-04-01T06:18:52.945Z,44.20
2018-04-01T06:19:24.861Z,44.10
2018-04-01T06:19:56.615Z,44.50
2018-04-01T06:20:28.358Z,44.00
2018-04-01T06:21:00.095Z,44.00
2018-04-01T06:21:31.845Z,44.40
2018-04-01T06:22:03.576Z,44.10
2018-04-01T06:22:35.308Z,44.00
2018-04-01T06:23:07.837Z,44.10
2018-04-01T06:23:39.604Z,44.00
2018-04-01T06:24:12.116Z,44.10
2018-04-01T06:24:43.852Z,44.10
2018-04-01T06:25:15.575Z,44.00
2018-04-01T06:25:47.303Z,44.60
2018-04-01T06:26:19.820Z,44.10
2018-04-01T06:26:51.549Z,44.10
2018-04-01T06:27:23.564Z,44.30
2018-04-01T06:27:56.076Z,44.10
2018-04-01T06:28:28.008Z,44.20
2018-04-01T06:28:59.804Z,44.20
2018-04-01T06:29:31.531Z,44.00
2018-04-01T06:30:03.280Z,43.60
2018-04-01T06:30:35.005Z,44.10
2018-04-01T06:31:06.743Z,44.00
2018-04-01T06:31:38.488Z,44.10
2018-04-01T06:32:10.238Z,44.10
2018-04-01T06:32:42.181Z,44.10
2018-04-01T06:33:13.916Z,44.10
2018-04-01T06:33:45.647Z,44.10
2018-04-01T06:34:17.393Z,44.20
2018-04-01T06:34:49.116Z,44.00
2018-04-01T06:35:21.625Z,44.00
2018-04-01T06:35:53.398Z,44.00
2018-04-01T06:36:25.156Z,44.40
2018-04-01T06:36:57.696Z,44.40
2018-04-01T06:37:29.501Z,44.40
2018-04-01T06:38:01.971Z,44.30
2018-04-01T06:38:33.710Z,44.30
2018-04-01T06:39:05.452Z,44.10
2018-04-01T06:39:37.187Z,44.20
2018-04-01T06:40:08.982Z,44.30
2018-04-01T06:40:40.968Z,44.40
2018-04-01T06:41:13.470Z,44.30
2018-04-01T06:41:45.205Z,44.30
2018-04-01T06:42:16.966Z,44.20
2018-04-01T06:42:48.883Z,44.20
2018-04-01T06:43:20.614Z,44.30
2018-04-01T06:43:52.362Z,44.30
2018-04-01T06:44:24.105Z,44.60
2018-04-01T06:44:56.604Z,44.90
2018-04-01T06:45:28.407Z,44.90
2018-04-01T06:46:00.314Z,44.40
2018-04-01T06:46:32.074Z,44.50
2018-04-01T06:47:03.824Z,44.40
2018-04-01T06:47:36.323Z,44.50
2018-04-01T06:48:08.060Z,44.30
2018-04-01T06:48:39.824Z,44.30
2018-04-01T06:49:11.541Z,44.50
2018-04-01T06:49:44.044Z,44.40